Time;durP1;ratioP1;P1;durP2;ratioP2;P2;SDS_P1;SDS_P2;PMS_P1;PMS_P2;Temp;Humidity;BMP_temperature;BMP_pressure;BME280_temperature;BME280_humidity;BME280_pressure;Samples;Min_cycle;Max_cycle;Signal;HPM_P1;HPM_P2
2021/04/22 00:01:30;;;;;;;1999.90;999.90;;;7.20;96.60;;;;;;5096059;28;20052;-93
2021/04/22 00:03:57;;;;;;;1999.90;999.90;;;7.20;96.40;;;;;;5095906;28;20543;-94
2021/04/22 00:06:24;;;;;;;1999.90;999.90;;;7.30;96.20;;;;;;5095701;28;20048;-94
2021/04/22 00:08:51;;;;;;;1999.90;999.90;;;7.20;96.00;;;;;;5095960;28;20051;-94
2021/04/22 00:11:18;;;;;;;1999.90;999.90;;;7.30;96.40;;;;;;5096977;28;20465;-94
2021/04/22 00:13:45;;;;;;;1999.90;999.90;;;7.30;96.20;;;;;;5096325;28;20135;-94
2021/04/22 00:16:13;;;;;;;1999.90;999.90;;;7.20;95.90;;;;;;5096182;28;20051;-94
2021/04/22 00:18:41;;;;;;;1999.90;999.90;;;7.30;95.90;;;;;;5095709;28;20075;-94
2021/04/22 00:21:09;;;;;;;1999.90;999.90;;;7.20;96.30;;;;;;5095047;28;20059;-94
2021/04/22 00:23:36;;;;;;;1999.90;999.90;;;7.20;96.00;;;;;;5096062;28;20093;-94
2021/04/22 00:26:03;;;;;;;1999.90;999.90;;;7.20;95.90;;;;;;5095068;28;20455;-94
2021/04/22 00:28:30;;;;;;;1999.90;999.90;;;7.20;96.00;;;;;;5095915;28;20398;-94
2021/04/22 00:30:57;;;;;;;1999.90;999.90;;;7.10;95.60;;;;;;5095816;28;20543;-95
2021/04/22 00:33:24;;;;;;;1999.90;999.90;;;7.10;95.90;;;;;;5094920;28;20048;-95
2021/04/22 00:35:52;;;;;;;1999.90;999.90;;;7.10;95.60;;;;;;5095065;28;20101;-94
2021/04/22 00:38:20;;;;;;;1999.90;999.90;;;7.10;95.60;;;;;;5094890;28;20106;-94
2021/04/22 00:40:49;;;;;;;1999.90;999.90;;;7.00;95.60;;;;;;5096782;28;20119;-94
2021/04/22 00:43:18;;;;;;;1999.90;999.90;;;7.00;95.80;;;;;;5096491;28;20075;-94
2021/04/22 00:45:47;;;;;;;1999.90;999.90;;;6.90;95.40;;;;;;5096420;28;20054;-95
2021/04/22 00:48:17;;;;;;;1999.90;999.90;;;7.00;95.30;;;;;;5095444;28;20059;-94
2021/04/22 00:50:44;;;;;;;1999.90;999.90;;;6.90;95.50;;;;;;5095039;28;20170;-95
2021/04/22 00:53:13;;;;;;;1999.90;999.90;;;6.90;96.10;;;;;;5094631;28;20491;-95
2021/04/22 00:55:40;;;;;;;1999.90;999.90;;;7.00;96.10;;;;;;5094455;28;20060;-94
2021/04/22 00:58:08;;;;;;;1999.90;999.90;;;7.10;96.00;;;;;;5095292;28;20052;-95
2021/04/22 01:00:38;;;;;;;1999.90;999.90;;;7.10;96.40;;;;;;5095427;28;20079;-94
2021/04/22 01:03:06;;;;;;;1999.90;999.90;;;7.10;95.90;;;;;;5095103;28;20087;-94
2021/04/22 01:05:35;;;;;;;1999.90;999.90;;;7.10;95.60;;;;;;5094521;28;20047;-94
2021/04/22 01:08:02;;;;;;;1999.90;999.90;;;7.10;96.00;;;;;;5097443;28;20072;-94
2021/04/22 01:10:30;;;;;;;1999.90;999.90;;;7.10;95.90;;;;;;5098984;28;20048;-94
2021/04/22 01:12:57;;;;;;;1999.90;999.90;;;7.10;96.30;;;;;;5098985;28;20058;-94
2021/04/22 01:15:27;;;;;;;1999.90;999.90;;;7.10;96.40;;;;;;5098657;28;20072;-94
2021/04/22 01:17:55;;;;;;;1999.90;999.90;;;7.10;96.40;;;;;;5099154;28;20071;-95
2021/04/22 01:20:25;;;;;;;1999.90;999.90;;;7.20;96.10;;;;;;5099364;28;20075;-94
2021/04/22 01:22:55;;;;;;;1999.90;999.90;;;7.20;96.30;;;;;;5101191;28;20082;-95
2021/04/22 01:25:24;;;;;;;1999.90;999.90;;;7.20;96.30;;;;;;5098981;28;20044;-94
2021/04/22 01:27:51;;;;;;;1999.90;999.90;;;7.20;96.40;;;;;;5098514;28;20588;-95
2021/04/22 01:30:21;;;;;;;1999.90;999.90;;;7.30;96.20;;;;;;5099199;28;20048;-94
2021/04/22 01:32:49;;;;;;;1999.90;999.90;;;7.20;96.50;;;;;;5099222;28;20048;-94
2021/04/22 01:35:19;;;;;;;1999.90;999.90;;;7.20;96.80;;;;;;5099140;28;20046;-92
2021/04/22 01:37:47;;;;;;;1999.90;999.90;;;7.20;97.00;;;;;;5099849;28;20493;-94
2021/04/22 01:40:17;;;;;;;1999.90;999.90;;;7.20;97.30;;;;;;5097795;28;20080;-94
2021/04/22 01:42:44;;;;;;;1999.90;999.90;;;7.20;97.60;;;;;;5097472;28;20483;-94
2021/04/22 01:45:12;;;;;;;1999.90;999.90;;;7.20;98.00;;;;;;5097662;28;20078;-95
2021/04/22 01:47:40;;;;;;;1999.90;999.90;;;7.20;98.10;;;;;;5098251;28;20052;-95
2021/04/22 01:50:10;;;;;;;1999.90;999.90;;;7.20;98.20;;;;;;5097920;28;20097;-94
2021/04/22 01:52:37;;;;;;;1999.90;999.90;;;7.20;98.30;;;;;;5097829;28;20091;-94
2021/04/22 01:55:07;;;;;;;1999.90;999.90;;;7.20;98.50;;;;;;5097210;28;20048;-94
2021/04/22 01:57:35;;;;;;;1999.90;999.90;;;7.30;98.30;;;;;;5079738;28;20091;-94
2021/04/22 02:00:07;;;;;;;1999.90;999.90;;;7.20;97.90;;;;;;5077711;28;20076;-94
2021/04/22 02:02:34;;;;;;;1999.90;999.90;;;7.20;97.60;;;;;;5077542;28;20083;-95
2021/04/22 02:05:01;;;;;;;1999.90;999.90;;;7.20;97.40;;;;;;5076942;28;20127;-94
2021/04/22 02:07:28;;;;;;;1999.90;999.90;;;7.20;97.30;;;;;;5077235;28;20068;-94
2021/04/22 02:09:55;;;;;;;1999.90;999.90;;;7.10;96.30;;;;;;5076790;28;20483;-94
2021/04/22 02:12:22;;;;;;;1999.90;999.90;;;7.10;96.00;;;;;;5077273;28;20119;-94
2021/04/22 02:14:50;;;;;;;1999.90;999.90;;;7.10;96.40;;;;;;5077462;28;20044;-94
2021/04/22 02:17:17;;;;;;;1999.90;999.90;;;7.10;96.30;;;;;;5087401;28;20436;-94
2021/04/22 02:19:44;;;;;;;1999.90;999.90;;;7.10;95.80;;;;;;5096347;28;20134;-94
2021/04/22 02:22:11;;;;;;;1999.90;999.90;;;7.00;95.80;;;;;;5096844;28;20139;-94
2021/04/22 02:24:38;;;;;;;1999.90;999.90;;;7.10;95.70;;;;;;5097153;28;20072;-94
2021/04/22 02:27:06;;;;;;;1999.90;999.90;;;7.00;95.60;;;;;;5097223;28;20052;-94
2021/04/22 02:29:33;;;;;;;1999.90;999.90;;;7.00;96.30;;;;;;5096873;28;20139;-94
2021/04/22 02:32:02;;;;;;;1999.90;999.90;;;7.10;96.10;;;;;;5097010;28;20079;-94
2021/04/22 02:34:29;;;;;;;1999.90;999.90;;;7.10;96.50;;;;;;5096956;28;20052;-94
2021/04/22 02:36:56;;;;;;;1999.90;999.90;;;7.00;97.00;;;;;;5096862;28;20135;-94
2021/04/22 02:39:23;;;;;;;1999.90;999.90;;;7.00;97.30;;;;;;5096977;28;20135;-94
2021/04/22 02:41:50;;;;;;;1999.90;999.90;;;7.00;97.80;;;;;;5097314;28;20051;-94
2021/04/22 02:44:19;;;;;;;1999.90;999.90;;;7.00;98.00;;;;;;5096355;28;20093;-94
2021/04/22 02:46:46;;;;;;;1999.90;999.90;;;7.00;98.30;;;;;;5096695;28;20581;-94
2021/04/22 02:49:14;;;;;;;1999.90;999.90;;;7.10;98.40;;;;;;5096668;28;20132;-94
2021/04/22 02:51:41;;;;;;;1999.90;999.90;;;7.10;98.60;;;;;;5096593;28;20079;-94
2021/04/22 02:54:08;;;;;;;1999.90;999.90;;;7.10;98.50;;;;;;5096552;28;20457;-95
2021/04/22 02:56:35;;;;;;;1999.90;999.90;;;7.10;98.50;;;;;;5097404;28;20090;-95
2021/04/22 02:59:02;;;;;;;1999.90;999.90;;;7.10;98.30;;;;;;5096182;28;20502;-94
2021/04/22 03:01:29;;;;;;;1999.90;999.90;;;7.10;98.40;;;;;;5096526;28;20105;-94
2021/04/22 03:03:56;;;;;;;1999.90;999.90;;;7.10;98.20;;;;;;5096531;28;20058;-95
2021/04/22 03:06:24;;;;;;;1999.90;999.90;;;7.00;98.20;;;;;;5095906;28;20482;-94
2021/04/22 03:08:51;;;;;;;1999.90;999.90;;;7.00;97.80;;;;;;5097214;28;20144;-94
2021/04/22 03:11:18;;;;;;;1999.90;999.90;;;7.10;98.00;;;;;;5100909;28;20052;-94
2021/04/22 03:13:45;;;;;;;1999.90;999.90;;;7.10;97.50;;;;;;5105483;28;20043;-94
2021/04/22 03:16:12;;;;;;;1999.90;999.90;;;7.10;96.60;;;;;;5107060;28;20048;-94
2021/04/22 03:18:39;;;;;;;1999.90;999.90;;;7.10;96.70;;;;;;5102012;28;20161;-94
2021/04/22 03:21:07;;;;;;;1999.90;999.90;;;7.10;97.10;;;;;;5098362;28;20147;-94
2021/04/22 03:23:35;;;;;;;1999.90;999.90;;;7.00;97.00;;;;;;5096971;28;20059;-94
2021/04/22 03:26:02;;;;;;;1999.90;999.90;;;7.00;96.90;;;;;;5096333;28;20090;-94
2021/04/22 03:28:29;;;;;;;1999.90;999.90;;;7.10;96.90;;;;;;5095736;28;20093;-94
2021/04/22 03:30:56;;;;;;;1999.90;999.90;;;7.00;96.70;;;;;;5094492;28;20479;-94
2021/04/22 03:33:23;;;;;;;1999.90;999.90;;;7.00;96.30;;;;;;5095902;28;20135;-94
2021/04/22 03:35:51;;;;;;;1999.90;999.90;;;6.90;96.20;;;;;;5096419;28;20074;-94
2021/04/22 03:38:18;;;;;;;1999.90;999.90;;;6.90;95.60;;;;;;5095704;28;20442;-94
2021/04/22 03:40:46;;;;;;;1999.90;999.90;;;6.90;96.10;;;;;;5096200;28;20056;-94
2021/04/22 03:43:13;;;;;;;1999.90;999.90;;;7.00;97.10;;;;;;5095503;28;20048;-94
2021/04/22 03:45:40;;;;;;;1999.90;999.90;;;7.00;96.90;;;;;;5095232;28;20138;-95
2021/04/22 03:48:08;;;;;;;1999.90;999.90;;;7.10;97.00;;;;;;5095702;28;20052;-95
2021/04/22 03:50:37;;;;;;;1999.90;999.90;;;7.00;97.20;;;;;;5095508;28;20141;-95
2021/04/22 03:53:04;;;;;;;1999.90;999.90;;;7.10;97.40;;;;;;5095547;28;20094;-95
2021/04/22 03:55:31;;;;;;;1999.90;999.90;;;7.10;97.50;;;;;;5078300;28;20136;-94
2021/04/22 03:57:59;;;;;;;1999.90;999.90;;;7.10;97.60;;;;;;5077302;28;20438;-95
2021/04/22 04:00:26;;;;;;;1999.90;999.90;;;7.10;97.50;;;;;;5076973;28;20048;-95
2021/04/22 04:02:53;;;;;;;1999.90;999.90;;;7.10;97.20;;;;;;5077087;28;20068;-94
2021/04/22 04:05:21;;;;;;;1999.90;999.90;;;7.10;97.10;;;;;;5075074;28;20051;-94
2021/04/22 04:07:49;;;;;;;1999.90;999.90;;;7.00;97.40;;;;;;5074936;28;20109;-94
2021/04/22 04:10:16;;;;;;;1999.90;999.90;;;7.00;97.40;;;;;;5075264;28;20052;-94
2021/04/22 04:12:43;;;;;;;1999.90;999.90;;;6.90;97.60;;;;;;5075718;28;20079;-95
2021/04/22 04:15:12;;;;;;;1999.90;999.90;;;7.00;97.60;;;;;;5075030;28;20044;-94
2021/04/22 04:17:39;;;;;;;1999.90;999.90;;;7.00;97.40;;;;;;5074593;28;20083;-94
2021/04/22 04:20:11;;;;;;;1999.90;999.90;;;6.90;97.40;;;;;;5074840;28;20102;-95
2021/04/22 04:22:39;;;;;;;1999.90;999.90;;;6.90;97.30;;;;;;5075570;28;20072;-94
2021/04/22 04:25:08;;;;;;;1999.90;999.90;;;6.90;97.50;;;;;;5079702;28;20044;-94
2021/04/22 04:27:35;;;;;;;1999.90;999.90;;;6.80;97.40;;;;;;5095184;28;20465;-94
2021/04/22 04:30:04;;;;;;;1999.90;999.90;;;6.80;97.60;;;;;;5095682;28;20082;-94
2021/04/22 04:32:31;;;;;;;1999.90;999.90;;;6.80;97.70;;;;;;5097771;28;20143;-94
2021/04/22 04:34:59;;;;;;;1999.90;999.90;;;6.80;97.70;;;;;;5099504;28;20044;-94
2021/04/22 04:37:26;;;;;;;1999.90;999.90;;;6.80;97.80;;;;;;5095071;28;20540;-94
2021/04/22 04:39:53;;;;;;;1999.90;999.90;;;6.80;98.20;;;;;;5094619;28;20075;-94
2021/04/22 04:42:20;;;;;;;1999.90;999.90;;;6.80;98.20;;;;;;5094871;28;20397;-94
2021/04/22 04:44:47;;;;;;;1999.90;999.90;;;6.80;97.90;;;;;;5095214;28;20048;-94
2021/04/22 04:47:14;;;;;;;1999.90;999.90;;;6.80;98.00;;;;;;5095816;28;20071;-94
2021/04/22 04:49:42;;;;;;;1999.90;999.90;;;6.90;98.30;;;;;;5094826;28;20492;-94
2021/04/22 04:52:09;;;;;;;1999.90;999.90;;;6.90;98.10;;;;;;5094894;28;20514;-94
2021/04/22 04:54:36;;;;;;;1999.90;999.90;;;7.00;97.70;;;;;;5095012;28;20056;-94
2021/04/22 04:57:06;;;;;;;1999.90;999.90;;;6.90;97.50;;;;;;5095470;28;20078;-94
2021/04/22 04:59:33;;;;;;;1999.90;999.90;;;6.80;97.40;;;;;;5091681;28;20090;-90
2021/04/22 05:02:00;;;;;;;1999.90;999.90;;;6.80;97.60;;;;;;5098734;28;20165;-89
2021/04/22 05:04:27;;;;;;;1999.90;999.90;;;6.90;97.50;;;;;;5093867;28;20051;-89
2021/04/22 05:06:55;;;;;;;1999.90;999.90;;;6.90;97.70;;;;;;5093843;28;20054;-90
2021/04/22 05:09:22;;;;;;;1999.90;999.90;;;6.90;97.70;;;;;;5093603;28;20052;-89
2021/04/22 05:11:49;;;;;;;1999.90;999.90;;;6.90;97.70;;;;;;5093885;28;20048;-90
2021/04/22 05:14:16;;;;;;;1999.90;999.90;;;6.90;97.70;;;;;;5084214;28;20132;-89
2021/04/22 05:16:43;;;;;;;1999.90;999.90;;;6.90;97.60;;;;;;5093053;28;20048;-89
2021/04/22 05:19:10;;;;;;;1999.90;999.90;;;6.90;97.50;;;;;;5087833;28;20052;-90
2021/04/22 05:21:37;;;;;;;1999.90;999.90;;;6.90;97.80;;;;;;5084853;28;20044;-89
2021/04/22 05:24:06;;;;;;;1999.90;999.90;;;6.90;97.30;;;;;;5093533;28;20131;-94
2021/04/22 05:26:33;;;;;;;1999.90;999.90;;;6.90;97.50;;;;;;5095118;28;20048;-93
2021/04/22 05:29:00;;;;;;;1999.90;999.90;;;6.90;97.30;;;;;;5095868;28;20090;-92
2021/04/22 05:31:27;;;;;;;1999.90;999.90;;;6.90;97.30;;;;;;5096934;28;20074;-93
2021/04/22 05:33:54;;;;;;;1999.90;999.90;;;7.00;97.50;;;;;;5101271;28;20059;-92
2021/04/22 05:36:22;;;;;;;1999.90;999.90;;;7.00;97.50;;;;;;5117743;28;20039;-93
2021/04/22 05:38:49;;;;;;;1999.90;999.90;;;7.10;97.60;;;;;;5117827;28;20032;-93
2021/04/22 05:41:17;;;;;;;1999.90;999.90;;;7.10;97.50;;;;;;5109483;28;20051;-93
2021/04/22 05:43:44;;;;;;;1999.90;999.90;;;7.10;97.40;;;;;;5095380;28;20051;-94
2021/04/22 05:46:11;;;;;;;1999.90;999.90;;;7.10;97.10;;;;;;5088421;28;20072;-93
2021/04/22 05:48:39;;;;;;;1999.90;999.90;;;7.10;96.80;;;;;;5074825;28;20048;-94
2021/04/22 05:51:07;;;;;;;1999.90;999.90;;;7.10;97.10;;;;;;5074571;28;20083;-94
2021/04/22 05:53:34;;;;;;;1999.90;999.90;;;7.10;97.10;;;;;;5074904;28;20068;-93
2021/04/22 05:56:01;;;;;;;1999.90;999.90;;;7.10;97.20;;;;;;5079727;28;20075;-94
2021/04/22 05:58:29;;;;;;;1999.90;999.90;;;7.20;97.20;;;;;;5081471;28;20487;-93
2021/04/22 06:00:56;;;;;;;1999.90;999.90;;;7.20;97.20;;;;;;5083041;28;20049;-93
2021/04/22 06:03:23;;;;;;;1999.90;999.90;;;7.30;97.30;;;;;;5096095;28;20048;-93
2021/04/22 06:05:50;;;;;;;1999.90;999.90;;;7.30;96.90;;;;;;5097897;28;20125;-94
2021/04/22 06:08:17;;;;;;;1999.90;999.90;;;7.30;96.80;;;;;;5099254;28;20069;-94
2021/04/22 06:10:45;;;;;;;1999.90;999.90;;;7.30;96.90;;;;;;5101170;28;20052;-94
2021/04/22 06:13:13;;;;;;;1999.90;999.90;;;7.40;96.70;;;;;;5100747;28;20083;-93
2021/04/22 06:15:41;;;;;;;1999.90;999.90;;;7.40;96.50;;;;;;5097918;28;20068;-94
2021/04/22 06:18:09;;;;;;;1999.90;999.90;;;7.40;97.00;;;;;;5097473;28;20056;-93
2021/04/22 06:20:36;;;;;;;1999.90;999.90;;;7.40;96.80;;;;;;5098527;28;20140;-94
2021/04/22 06:23:24;;;;;;;1999.90;999.90;;;7.50;96.50;;;;;;5097425;28;20509;-94
2021/04/22 06:25:51;;;;;;;1999.90;999.90;;;7.50;96.90;;;;;;5097006;28;20051;-94
2021/04/22 06:28:18;;;;;;;1999.90;999.90;;;7.50;96.70;;;;;;5096976;28;20083;-95
2021/04/22 06:30:46;;;;;;;1999.90;999.90;;;7.50;96.40;;;;;;5097079;28;20098;-94
2021/04/22 06:33:13;;;;;;;1999.90;999.90;;;7.50;96.70;;;;;;5097105;28;20078;-95
2021/04/22 06:35:41;;;;;;;1999.90;999.90;;;7.60;96.90;;;;;;5097193;28;20068;-94
2021/04/22 06:38:08;;;;;;;1999.90;999.90;;;7.70;96.80;;;;;;5097449;28;20130;-94
2021/04/22 06:40:35;;;;;;;1999.90;999.90;;;7.70;96.40;;;;;;5096981;28;20076;-94
2021/04/22 06:43:08;;;;;;;1999.90;999.90;;;7.70;95.60;;;;;;5097555;28;20063;-94
2021/04/22 06:45:37;;;;;;;1999.90;999.90;;;7.80;96.00;;;;;;5096524;28;20121;-94
2021/04/22 06:48:06;;;;;;;1999.90;999.90;;;7.80;96.00;;;;;;5097019;28;20527;-94
2021/04/22 06:50:33;;;;;;;1999.90;999.90;;;7.90;96.30;;;;;;5096850;28;20048;-94
2021/04/22 06:53:00;;;;;;;1999.90;999.90;;;8.00;96.30;;;;;;5096702;28;20094;-94
2021/04/22 06:55:28;;;;;;;1999.90;999.90;;;8.10;96.50;;;;;;5096699;28;20048;-95
2021/04/22 06:57:57;;;;;;;1999.90;999.90;;;8.20;96.30;;;;;;5096733;28;20136;-95
2021/04/22 07:00:27;;;;;;;1999.90;999.90;;;8.30;95.70;;;;;;5097252;28;20056;-94
2021/04/22 07:02:54;;;;;;;1999.90;999.90;;;8.40;94.80;;;;;;5097390;28;20101;-94
2021/04/22 07:05:23;;;;;;;1999.90;999.90;;;8.40;94.90;;;;;;5096205;28;20471;-94
2021/04/22 07:07:50;;;;;;;1999.90;999.90;;;8.40;95.20;;;;;;5096730;28;20554;-94
2021/04/22 07:10:18;;;;;;;1999.90;999.90;;;8.40;94.90;;;;;;5096637;28;20187;-95
2021/04/22 07:12:45;;;;;;;1999.90;999.90;;;8.30;94.80;;;;;;5096475;28;20541;-95
2021/04/22 07:15:13;;;;;;;1999.90;999.90;;;8.40;94.90;;;;;;5096344;28;20051;-94
2021/04/22 07:17:40;;;;;;;1999.90;999.90;;;8.40;94.90;;;;;;5096673;28;20139;-94
2021/04/22 07:20:11;;;;;;;1999.90;999.90;;;8.50;94.70;;;;;;5096222;28;20055;-95
2021/04/22 07:22:52;;;;;;;1999.90;999.90;;;8.50;94.80;;;;;;5096515;28;20048;-95
2021/04/22 07:25:20;;;;;;;1999.90;999.90;;;8.50;94.60;;;;;;5096559;28;20044;-95
2021/04/22 07:27:47;;;;;;;1999.90;999.90;;;8.60;94.60;;;;;;5096968;28;20067;-95
2021/04/22 07:30:15;;;;;;;1999.90;999.90;;;8.60;94.40;;;;;;5096116;28;20086;-95
2021/04/22 07:32:42;;;;;;;1999.90;999.90;;;8.70;94.70;;;;;;5097147;28;20075;-94
2021/04/22 07:35:10;;;;;;;1999.90;999.90;;;8.80;94.60;;;;;;5096125;28;20090;-95
2021/04/22 07:37:38;;;;;;;1999.90;999.90;;;8.80;94.50;;;;;;5096335;28;20072;-95
2021/04/22 07:40:09;;;;;;;1999.90;999.90;;;8.80;94.20;;;;;;5096385;28;20044;-96
2021/04/22 07:42:36;;;;;;;1999.90;999.90;;;8.80;94.40;;;;;;5096418;28;20072;-96
2021/04/22 07:45:04;;;;;;;1999.90;999.90;;;8.80;94.60;;;;;;5096331;28;20040;-95
2021/04/22 07:47:31;;;;;;;1999.90;999.90;;;8.80;94.40;;;;;;5095939;28;20060;-94
2021/04/22 07:49:58;;;;;;;1999.90;999.90;;;8.90;94.40;;;;;;5096490;28;20056;-95
2021/04/22 07:52:25;;;;;;;1999.90;999.90;;;8.90;94.20;;;;;;5095742;28;20044;-94
2021/04/22 07:54:53;;;;;;;1999.90;999.90;;;8.90;94.20;;;;;;5096551;28;20079;-94
2021/04/22 07:57:21;;;;;;;1999.90;999.90;;;8.90;93.90;;;;;;5096646;28;20052;-94
2021/04/22 07:59:51;;;;;;;1999.90;999.90;;;9.00;94.00;;;;;;5097585;28;20456;-94
2021/04/22 08:02:38;;;;;;;1999.90;999.90;;;9.00;93.70;;;;;;5098290;28;20569;-94
2021/04/22 08:05:07;;;;;;;1999.90;999.90;;;9.00;93.70;;;;;;5098474;28;20044;-95
2021/04/22 08:07:34;;;;;;;1999.90;999.90;;;9.20;93.70;;;;;;5098545;28;20128;-95
2021/04/22 08:10:02;;;;;;;1999.90;999.90;;;9.20;92.80;;;;;;5099658;28;20102;-94
2021/04/22 08:12:30;;;;;;;1999.90;999.90;;;9.30;92.40;;;;;;5097805;28;20048;-94
2021/04/22 08:14:59;;;;;;;1999.90;999.90;;;9.40;92.40;;;;;;5096418;28;20055;-95
2021/04/22 08:17:26;;;;;;;1999.90;999.90;;;9.40;91.30;;;;;;5095295;28;20135;-95
2021/04/22 08:19:54;;;;;;;1999.90;999.90;;;9.50;90.70;;;;;;5095153;28;20102;-95
2021/04/22 08:22:21;;;;;;;1999.90;999.90;;;9.50;90.90;;;;;;5095481;28;20051;-95
2021/04/22 08:24:49;;;;;;;1999.90;999.90;;;9.50;90.90;;;;;;5095090;28;20055;-95
2021/04/22 08:27:15;;;;;;;1999.90;999.90;;;9.70;91.20;;;;;;5095402;28;20398;-95
2021/04/22 08:29:44;;;;;;;1999.90;999.90;;;9.70;90.60;;;;;;5095298;28;20079;-95
2021/04/22 08:32:12;;;;;;;1999.90;999.90;;;9.80;91.00;;;;;;5095580;28;20048;-95
2021/04/22 08:34:39;;;;;;;1999.90;999.90;;;9.70;90.80;;;;;;5095319;28;20047;-94
2021/04/22 08:37:06;;;;;;;1999.90;999.90;;;9.70;91.60;;;;;;5095188;28;20069;-95
2021/04/22 08:39:33;;;;;;;1999.90;999.90;;;9.80;90.60;;;;;;5096329;28;20059;-95
2021/04/22 08:42:00;;;;;;;1999.90;999.90;;;9.90;90.80;;;;;;5096273;28;20376;-95
2021/04/22 08:44:28;;;;;;;1999.90;999.90;;;10.00;91.40;;;;;;5095713;28;20052;-95
2021/04/22 08:46:57;;;;;;;1999.90;999.90;;;10.00;91.10;;;;;;5096096;28;20455;-95
2021/04/22 08:49:27;;;;;;;1999.90;999.90;;;10.10;91.10;;;;;;5096205;28;20105;-95
2021/04/22 08:51:54;;;;;;;1999.90;999.90;;;10.00;90.40;;;;;;5096101;28;20051;-95
2021/04/22 08:54:22;;;;;;;1999.90;999.90;;;10.00;91.00;;;;;;5095667;28;20487;-95
2021/04/22 08:56:50;;;;;;;1999.90;999.90;;;10.00;90.40;;;;;;5095750;28;20044;-95
2021/04/22 08:59:18;;;;;;;1999.90;999.90;;;10.10;91.50;;;;;;5095981;28;20055;-95
2021/04/22 09:01:45;;;;;;;1999.90;999.90;;;10.20;90.90;;;;;;5093788;28;20079;-89
2021/04/22 09:04:13;;;;;;;1999.90;999.90;;;10.30;89.90;;;;;;5093060;28;20048;-88
2021/04/22 09:06:40;;;;;;;1999.90;999.90;;;10.30;87.90;;;;;;5080509;28;20041;-90
2021/04/22 09:09:09;;;;;;;1999.90;999.90;;;10.30;86.30;;;;;;5087179;28;20058;-89
2021/04/22 09:11:42;;;;;;;1999.90;999.90;;;10.30;85.70;;;;;;5078899;28;20051;-89
2021/04/22 09:14:14;;;;;;;1999.90;999.90;;;10.40;86.00;;;;;;5093367;28;20048;-89
2021/04/22 09:16:42;;;;;;;1999.90;999.90;;;10.50;85.80;;;;;;5093238;28;20060;-89
2021/04/22 09:19:12;;;;;;;1999.90;999.90;;;10.50;84.80;;;;;;5093390;28;20076;-89
2021/04/22 09:21:44;;;;;;;1999.90;999.90;;;10.60;86.40;;;;;;5078635;28;20044;-89
2021/04/22 09:24:14;;;;;;;1999.90;999.90;;;10.60;84.10;;;;;;5093039;28;20130;-90
2021/04/22 09:26:44;;;;;;;1999.90;999.90;;;10.60;83.90;;;;;;5088301;28;20117;-89
2021/04/22 09:29:14;;;;;;;1999.90;999.90;;;10.60;83.50;;;;;;5094091;28;20168;-89
2021/04/22 09:31:42;;;;;;;1999.90;999.90;;;10.60;82.70;;;;;;5096399;28;20052;-89
2021/04/22 09:34:12;;;;;;;1999.90;999.90;;;10.60;82.30;;;;;;5096377;28;20054;-90
2021/04/22 09:36:44;;;;;;;1999.90;999.90;;;10.70;81.90;;;;;;5095797;28;20135;-90
2021/04/22 09:39:12;;;;;;;1999.90;999.90;;;10.70;83.00;;;;;;5093274;28;20048;-89
2021/04/22 09:41:39;;;;;;;1999.90;999.90;;;10.80;81.90;;;;;;5087168;28;20048;-89
2021/04/22 09:44:09;;;;;;;1999.90;999.90;;;10.90;81.00;;;;;;5096271;28;20135;-89
2021/04/22 09:46:41;;;;;;;1999.90;999.90;;;10.80;80.50;;;;;;5091064;28;20044;-89
2021/04/22 09:49:10;;;;;;;1999.90;999.90;;;10.80;82.60;;;;;;5096395;28;20477;-90
2021/04/22 09:51:38;;;;;;;1999.90;999.90;;;10.80;81.30;;;;;;5096290;28;20154;-89
2021/04/22 09:54:12;;;;;;;1999.90;999.90;;;10.80;81.00;;;;;;5096213;28;20490;-90
2021/04/22 09:56:46;;;;;;;1999.90;999.90;;;10.80;80.60;;;;;;5089498;28;20078;-89
2021/04/22 09:59:20;;;;;;;1999.90;999.90;;;10.80;81.20;;;;;;5095657;28;20074;-90
2021/04/22 10:01:58;;;;;;;1999.90;999.90;;;10.90;81.80;;;;;;5094599;28;20109;-89
2021/04/22 10:04:32;;;;;;;1999.90;999.90;;;10.90;80.70;;;;;;5096389;28;20510;-89
2021/04/22 10:06:59;;;;;;;1999.90;999.90;;;11.00;80.70;;;;;;5090871;28;20079;-90
2021/04/22 10:09:34;;;;;;;1999.90;999.90;;;11.10;80.10;;;;;;5095935;28;20056;-89
2021/04/22 10:12:02;;;;;;;1999.90;999.90;;;11.20;79.40;;;;;;5097172;28;20134;-96
2021/04/22 10:14:31;;;;;;;1999.90;999.90;;;11.20;78.90;;;;;;5097814;28;20056;-96
2021/04/22 10:16:59;;;;;;;1999.90;999.90;;;11.20;79.50;;;;;;5098348;28;20110;-96
2021/04/22 10:19:26;;;;;;;1999.90;999.90;;;11.20;78.70;;;;;;5097688;28;20071;-96
2021/04/22 10:21:53;;;;;;;1999.90;999.90;;;11.30;79.70;;;;;;5097512;28;20085;-96
2021/04/22 10:24:26;;;;;;;1999.90;999.90;;;11.40;79.00;;;;;;5097870;28;20082;-96
2021/04/22 10:27:01;;;;;;;1999.90;999.90;;;11.50;80.00;;;;;;5097965;28;20051;-96
2021/04/22 10:29:29;;;;;;;1999.90;999.90;;;11.60;80.70;;;;;;5098225;28;20072;-96
2021/04/22 10:31:58;;;;;;;1999.90;999.90;;;11.70;79.70;;;;;;5097193;28;20064;-96
2021/04/22 10:34:30;;;;;;;1999.90;999.90;;;11.70;79.10;;;;;;5097205;28;20513;-96
2021/04/22 10:36:58;;;;;;;1999.90;999.90;;;11.70;80.00;;;;;;5097195;28;20056;-96
2021/04/22 10:39:26;;;;;;;1999.90;999.90;;;11.60;80.80;;;;;;5096883;28;20048;-96
2021/04/22 10:41:53;;;;;;;1999.90;999.90;;;11.60;80.40;;;;;;5097250;28;20075;-96
2021/04/22 10:44:24;;;;;;;1999.90;999.90;;;11.80;82.90;;;;;;5097881;28;20059;-96
2021/04/22 10:46:51;;;;;;;1999.90;999.90;;;11.80;80.60;;;;;;5097195;28;20151;-96
2021/04/22 10:49:18;;;;;;;1999.90;999.90;;;11.80;80.80;;;;;;5098054;28;20378;-96
2021/04/22 10:51:46;;;;;;;1999.90;999.90;;;11.80;79.10;;;;;;5096897;28;20052;-96
2021/04/22 10:54:13;;;;;;;1999.90;999.90;;;11.80;80.40;;;;;;5096574;28;20075;-96
2021/04/22 10:56:40;;;;;;;1999.90;999.90;;;11.80;78.30;;;;;;5097448;28;20052;-96
2021/04/22 10:59:19;;;;;;;1999.90;999.90;;;11.70;78.70;;;;;;5097130;28;20106;-96
2021/04/22 11:01:48;;;;;;;1999.90;999.90;;;11.60;79.30;;;;;;5097010;28;20131;-96
2021/04/22 11:04:15;;;;;;;1999.90;999.90;;;11.70;80.50;;;;;;5097111;28;20048;-95
2021/04/22 11:06:43;;;;;;;1999.90;999.90;;;11.80;78.90;;;;;;5096792;28;20079;-96
2021/04/22 11:09:20;;;;;;;1999.90;999.90;;;11.80;80.00;;;;;;5097880;28;20048;-96
2021/04/22 11:11:56;;;;;;;1999.90;999.90;;;11.80;78.60;;;;;;5098407;28;20052;-96
2021/04/22 11:14:38;;;;;;;1999.90;999.90;;;11.90;78.50;;;;;;5098788;28;20068;-96
2021/04/22 11:17:08;;;;;;;1999.90;999.90;;;12.00;77.90;;;;;;5098161;28;20075;-96
2021/04/22 11:19:38;;;;;;;1999.90;999.90;;;12.00;76.40;;;;;;5098076;28;20048;-96
2021/04/22 11:22:22;;;;;;;1999.90;999.90;;;12.00;76.60;;;;;;5097545;28;20482;-92
2021/04/22 11:24:55;;;;;;;1999.90;999.90;;;12.10;77.70;;;;;;5095239;28;20071;-92
2021/04/22 11:27:24;;;;;;;1999.90;999.90;;;12.20;75.70;;;;;;5091321;28;20063;-92
2021/04/22 11:29:52;;;;;;;1999.90;999.90;;;12.40;74.70;;;;;;5095603;28;20143;-92
2021/04/22 11:32:26;;;;;;;1999.90;999.90;;;12.50;75.90;;;;;;5092305;28;20101;-93
2021/04/22 11:34:57;;;;;;;1999.90;999.90;;;12.40;75.20;;;;;;5096320;28;20051;-92
2021/04/22 11:37:31;;;;;;;1999.90;999.90;;;12.50;78.00;;;;;;5095851;28;20152;-92
2021/04/22 11:39:58;;;;;;;1999.90;999.90;;;12.70;75.80;;;;;;5086410;28;20158;-92
2021/04/22 11:42:25;;;;;;;1999.90;999.90;;;12.70;75.80;;;;;;5095945;28;20086;-92
2021/04/22 11:44:53;;;;;;;1999.90;999.90;;;12.70;76.20;;;;;;5095809;28;20080;-92
2021/04/22 11:47:25;;;;;;;1999.90;999.90;;;12.70;75.90;;;;;;5095695;28;20066;-92
2021/04/22 11:50:08;;;;;;;1999.90;999.90;;;12.80;76.70;;;;;;5089543;28;20070;-92
2021/04/22 11:52:48;;;;;;;1999.90;999.90;;;12.80;75.80;;;;;;5094709;28;20051;-92
2021/04/22 11:55:24;;;;;;;1999.90;999.90;;;12.70;76.70;;;;;;5097223;28;20066;-92
2021/04/22 11:57:58;;;;;;;1999.90;999.90;;;12.70;77.20;;;;;;5094074;28;20075;-96
2021/04/22 12:00:30;;;;;;;1999.90;999.90;;;12.70;76.50;;;;;;5076550;28;20135;-96
2021/04/22 12:02:59;;;;;;;1999.90;999.90;;;12.50;76.70;;;;;;5076953;28;20055;-96
2021/04/22 12:05:26;;;;;;;1999.90;999.90;;;12.50;77.30;;;;;;5076663;28;20106;-96
2021/04/22 12:07:58;;;;;;;1999.90;999.90;;;12.70;77.80;;;;;;5076976;28;20127;-96
2021/04/22 12:10:27;;;;;;;1999.90;999.90;;;12.90;76.50;;;;;;5085328;28;20048;-90
2021/04/22 12:13:03;;;;;;;1999.90;999.90;;;12.90;78.60;;;;;;5095400;28;20487;-88